createdAt,value
2023-05-05T00:00:28.760Z,100.00
2023-05-05T00:02:57.086Z,100.00
2023-05-05T00:05:26.692Z,100.00
2023-05-05T00:07:54.836Z,100.00
2023-05-05T00:10:22.906Z,100.00
2023-05-05T00:12:50.881Z,100.00
2023-05-05T00:15:19.970Z,100.00
2023-05-05T00:17:48.118Z,100.00
2023-05-05T00:20:16.300Z,100.00
2023-05-05T00:22:44.321Z,100.00
2023-05-05T00:25:12.379Z,100.00
2023-05-05T00:27:41.068Z,100.00
2023-05-05T00:30:09.460Z,100.00
2023-05-05T00:32:37.899Z,100.00
2023-05-05T00:35:06.232Z,100.00
2023-05-05T00:37:34.246Z,100.00
2023-05-05T00:40:02.244Z,100.00
2023-05-05T00:42:41.226Z,100.00
2023-05-05T00:45:10.091Z,100.00
2023-05-05T00:47:38.233Z,100.00
2023-05-05T00:50:09.423Z,100.00
2023-05-05T00:52:38.370Z,100.00
2023-05-05T00:55:06.980Z,100.00
2023-05-05T00:57:35.162Z,100.00
2023-05-05T01:00:03.821Z,100.00
2023-05-05T01:02:32.750Z,100.00
2023-05-05T01:05:01.567Z,100.00
2023-05-05T01:07:47.167Z,100.00
2023-05-05T01:10:32.490Z,100.00
2023-05-05T01:13:12.308Z,100.00
2023-05-05T01:16:05.887Z,100.00
2023-05-05T01:18:56.949Z,100.00
2023-05-05T01:21:32.689Z,100.00
2023-05-05T01:24:27.752Z,100.00
2023-05-05T01:27:17.559Z,100.00
2023-05-05T01:30:22.849Z,100.00
2023-05-05T01:32:58.214Z,100.00
2023-05-05T01:35:31.170Z,100.00
2023-05-05T01:38:05.755Z,100.00
2023-05-05T01:40:35.316Z,100.00
2023-05-05T01:43:03.254Z,100.00
2023-05-05T01:45:33.067Z,100.00
2023-05-05T01:48:01.068Z,100.00
2023-05-05T01:50:29.550Z,100.00
2023-05-05T01:52:57.761Z,100.00
2023-05-05T01:55:28.990Z,100.00
2023-05-05T01:57:57.042Z,100.00
2023-05-05T02:00:26.563Z,100.00
2023-05-05T02:02:54.951Z,100.00
2023-05-05T02:05:24.198Z,100.00
2023-05-05T02:07:52.334Z,100.00
2023-05-05T02:10:20.389Z,100.00
2023-05-05T02:12:48.306Z,100.00
2023-05-05T02:15:16.348Z,100.00
2023-05-05T02:17:44.672Z,100.00
2023-05-05T02:20:14.094Z,100.00
2023-05-05T02:22:42.226Z,100.00
2023-05-05T02:25:10.761Z,100.00
2023-05-05T02:27:39.167Z,100.00
2023-05-05T02:30:09.955Z,100.00
2023-05-05T02:32:52.140Z,100.00
2023-05-05T02:35:22.755Z,100.00
2023-05-05T02:38:01.378Z,100.00
2023-05-05T02:40:31.012Z,100.00
2023-05-05T02:43:00.241Z,100.00
2023-05-05T02:45:28.333Z,100.00
2023-05-05T02:47:56.353Z,100.00
2023-05-05T02:50:24.368Z,100.00
2023-05-05T02:52:52.332Z,100.00
2023-05-05T02:55:20.303Z,100.00
2023-05-05T02:57:57.573Z,100.00
2023-05-05T03:00:28.548Z,100.00
2023-05-05T03:03:19.265Z,100.00
2023-05-05T03:06:12.611Z,100.00
2023-05-05T03:09:00.281Z,100.00
2023-05-05T03:11:52.328Z,100.00
2023-05-05T03:14:22.335Z,100.00
2023-05-05T03:16:50.740Z,100.00
2023-05-05T03:19:20.033Z,100.00
2023-05-05T03:21:48.062Z,100.00
2023-05-05T03:24:17.159Z,100.00
2023-05-05T03:26:45.718Z,100.00
2023-05-05T03:29:14.504Z,100.00
2023-05-05T03:31:42.789Z,100.00
2023-05-05T03:34:10.875Z,100.00
2023-05-05T03:36:39.298Z,100.00
2023-05-05T03:39:07.334Z,100.00
2023-05-05T03:41:35.411Z,100.00
2023-05-05T03:44:03.381Z,100.00
2023-05-05T03:46:31.276Z,100.00
2023-05-05T03:48:59.340Z,100.00
2023-05-05T03:51:27.366Z,100.00
2023-05-05T03:53:55.304Z,100.00
2023-05-05T03:56:23.414Z,100.00
2023-05-05T03:58:51.356Z,100.00
2023-05-05T04:01:19.349Z,100.00
2023-05-05T04:03:47.529Z,100.00
2023-05-05T04:06:15.559Z,100.00
2023-05-05T04:08:43.599Z,100.00
2023-05-05T04:11:12.003Z,100.00
2023-05-05T04:13:39.984Z,100.00
2023-05-05T04:16:08.206Z,100.00
2023-05-05T04:18:36.272Z,100.00
2023-05-05T04:21:04.596Z,100.00
2023-05-05T04:23:32.685Z,100.00
2023-05-05T04:26:00.676Z,100.00
2023-05-05T04:28:28.742Z,100.00
2023-05-05T04:30:56.901Z,100.00
2023-05-05T04:33:25.037Z,100.00
2023-05-05T04:35:53.039Z,100.00
2023-05-05T04:38:22.404Z,100.00
2023-05-05T04:40:50.475Z,100.00
2023-05-05T04:43:18.447Z,100.00
2023-05-05T04:45:55.923Z,100.00
2023-05-05T04:48:24.020Z,100.00
2023-05-05T04:50:52.699Z,100.00
2023-05-05T04:53:20.740Z,100.00
2023-05-05T04:55:48.754Z,100.00
2023-05-05T04:58:16.857Z,100.00
2023-05-05T05:00:44.924Z,100.00
2023-05-05T05:03:13.493Z,100.00
2023-05-05T05:05:41.544Z,100.00
2023-05-05T05:08:09.586Z,100.00
2023-05-05T05:10:37.807Z,100.00
2023-05-05T05:13:05.866Z,100.00
2023-05-05T05:15:33.857Z,100.00
2023-05-05T05:18:01.885Z,100.00
2023-05-05T05:20:31.667Z,100.00
2023-05-05T05:22:59.817Z,100.00
2023-05-05T05:25:27.865Z,100.00
2023-05-05T05:30:30.313Z,100.00
2023-05-05T05:32:58.267Z,100.00
2023-05-05T05:35:26.335Z,100.00
2023-05-05T05:37:54.354Z,100.00
2023-05-05T05:40:22.451Z,100.00
2023-05-05T05:42:50.929Z,100.00
2023-05-05T05:45:19.109Z,100.00
2023-05-05T05:47:47.305Z,100.00
2023-05-05T05:50:15.340Z,100.00
2023-05-05T05:52:43.356Z,100.00
2023-05-05T05:55:11.438Z,100.00
2023-05-05T05:57:39.410Z,100.00
2023-05-05T06:00:08.113Z,100.00
2023-05-05T06:02:36.444Z,100.00
2023-05-05T06:05:04.568Z,100.00
2023-05-05T06:07:32.499Z,100.00
2023-05-05T06:10:10.889Z,100.00
2023-05-05T06:12:46.965Z,100.00
2023-05-05T06:15:14.918Z,100.00
2023-05-05T06:17:42.875Z,100.00
2023-05-05T06:20:11.515Z,100.00
2023-05-05T06:22:39.505Z,100.00
2023-05-05T06:25:08.032Z,100.00
2023-05-05T06:27:36.216Z,100.00
2023-05-05T06:30:04.164Z,100.00
2023-05-05T06:32:32.206Z,100.00
2023-05-05T06:35:00.369Z,100.00
2023-05-05T06:37:28.357Z,100.00
2023-05-05T06:39:56.411Z,100.00
2023-05-05T06:42:24.453Z,100.00
2023-05-05T06:44:52.506Z,100.00
2023-05-05T06:47:20.459Z,100.00
2023-05-05T06:49:48.522Z,100.00
2023-05-05T06:52:16.528Z,100.00
2023-05-05T06:54:45.108Z,100.00
2023-05-05T06:57:13.176Z,100.00
2023-05-05T06:59:41.119Z,100.00
2023-05-05T07:02:09.117Z,100.00
2023-05-05T07:04:37.911Z,100.00
2023-05-05T07:07:06.026Z,100.00
2023-05-05T07:09:34.036Z,100.00
2023-05-05T07:12:02.062Z,100.00
2023-05-05T07:14:30.093Z,100.00
2023-05-05T07:16:58.328Z,100.00
2023-05-05T07:19:26.494Z,100.00
2023-05-05T07:21:54.489Z,100.00
2023-05-05T07:24:22.474Z,100.00
2023-05-05T07:26:50.388Z,100.00
2023-05-05T07:29:18.335Z,100.00
2023-05-05T07:31:46.275Z,100.00
2023-05-05T07:34:14.371Z,100.00
2023-05-05T07:36:42.367Z,100.00
2023-05-05T07:39:10.411Z,100.00
2023-05-05T07:41:38.396Z,100.00
2023-05-05T07:44:06.498Z,100.00
2023-05-05T07:46:34.523Z,100.00
2023-05-05T07:49:02.625Z,100.00
2023-05-05T07:51:32.021Z,100.00
2023-05-05T07:54:01.282Z,100.00
2023-05-05T07:56:29.315Z,100.00
2023-05-05T07:58:57.313Z,100.00
2023-05-05T08:01:25.364Z,100.00
2023-05-05T08:03:53.469Z,100.00
2023-05-05T08:06:26.204Z,100.00
2023-05-05T08:08:54.737Z,100.00
2023-05-05T08:11:23.483Z,100.00
2023-05-05T08:13:51.570Z,100.00
2023-05-05T08:16:19.697Z,100.00
2023-05-05T08:18:47.995Z,100.00
2023-05-05T08:21:16.183Z,100.00
2023-05-05T08:23:44.409Z,100.00
2023-05-05T08:26:12.481Z,100.00
2023-05-05T08:28:40.588Z,100.00
2023-05-05T08:31:09.166Z,98.62
2023-05-05T08:33:37.203Z,98.85
2023-05-05T08:36:05.366Z,98.19
2023-05-05T08:38:33.586Z,97.08
2023-05-05T08:41:01.636Z,97.12
2023-05-05T08:43:29.707Z,95.64
2023-05-05T08:45:58.134Z,93.56
2023-05-05T08:48:26.146Z,92.77
2023-05-05T08:50:59.517Z,93.15
2023-05-05T08:53:41.370Z,90.17
2023-05-05T08:56:09.442Z,87.80
2023-05-05T08:58:38.291Z,90.15
2023-05-05T09:01:08.262Z,89.12
2023-05-05T09:03:37.048Z,87.19
2023-05-05T09:06:05.506Z,86.08
2023-05-05T09:08:33.584Z,83.82
2023-05-05T09:11:02.164Z,83.06
2023-05-05T09:13:31.238Z,80.50
2023-05-05T09:16:02.069Z,76.18
2023-05-05T09:18:30.275Z,76.08
2023-05-05T09:20:59.479Z,76.48
2023-05-05T09:23:27.576Z,75.99
2023-05-05T09:26:12.111Z,75.60
2023-05-05T09:28:40.147Z,68.91
2023-05-05T09:31:15.441Z,71.18
2023-05-05T09:33:43.499Z,69.50
2023-05-05T09:36:12.957Z,70.63
2023-05-05T09:38:40.955Z,69.62
2023-05-05T09:41:08.855Z,70.83
2023-05-05T09:43:53.036Z,69.74
2023-05-05T09:46:21.082Z,62.01
2023-05-05T09:48:49.318Z,67.84
2023-05-05T09:51:17.497Z,67.12
2023-05-05T09:53:45.520Z,66.26
2023-05-05T09:56:13.529Z,68.36
2023-05-05T09:58:41.761Z,66.41
2023-05-05T10:01:22.754Z,66.32
2023-05-05T10:03:53.981Z,61.83
2023-05-05T10:06:23.364Z,61.18
2023-05-05T10:09:02.611Z,61.50
2023-05-05T10:11:30.697Z,59.72
2023-05-05T10:13:58.711Z,60.76
2023-05-05T10:16:27.528Z,60.43
2023-05-05T10:18:57.081Z,61.72
2023-05-05T10:21:26.604Z,62.67
2023-05-05T10:23:59.675Z,60.95
2023-05-05T10:26:28.057Z,61.31
2023-05-05T10:28:59.014Z,62.84
2023-05-05T10:31:31.413Z,60.81
2023-05-05T10:34:05.114Z,58.78
2023-05-05T10:36:33.285Z,59.49
2023-05-05T10:39:01.597Z,59.43
2023-05-05T10:41:29.684Z,59.49
2023-05-05T10:44:03.678Z,60.06
2023-05-05T10:46:32.585Z,59.09
2023-05-05T10:49:13.461Z,57.98
2023-05-05T10:51:41.715Z,55.49
2023-05-05T10:54:22.382Z,57.12
2023-05-05T10:56:50.341Z,57.06
2023-05-05T10:59:41.607Z,58.05
2023-05-05T11:02:26.383Z,59.76
2023-05-05T11:05:18.962Z,55.10
2023-05-05T11:07:47.738Z,54.67
2023-05-05T11:10:16.452Z,55.99
2023-05-05T11:12:53.418Z,54.98
2023-05-05T11:15:30.668Z,54.90
2023-05-05T11:17:59.521Z,56.60
2023-05-05T11:20:36.727Z,55.67
2023-05-05T11:23:05.301Z,54.27
2023-05-05T11:25:36.765Z,54.65
2023-05-05T11:28:15.923Z,55.20
2023-05-05T11:30:56.381Z,53.52
2023-05-05T11:33:37.338Z,53.92
2023-05-05T11:36:12.969Z,53.27
2023-05-05T11:38:40.777Z,53.60
2023-05-05T11:41:11.392Z,55.13
2023-05-05T11:43:39.706Z,53.53
2023-05-05T11:46:14.602Z,54.54
2023-05-05T11:48:49.238Z,53.57
2023-05-05T11:51:17.840Z,54.09
2023-05-05T11:53:49.279Z,53.91
2023-05-05T11:56:23.121Z,54.51
2023-05-05T11:58:51.254Z,53.73
2023-05-05T12:01:19.218Z,53.17
2023-05-05T12:03:47.496Z,52.84
2023-05-05T12:06:15.593Z,53.61
2023-05-05T12:08:43.550Z,55.53
2023-05-05T12:11:12.069Z,54.17
2023-05-05T12:13:40.183Z,53.83
2023-05-05T12:16:14.946Z,53.65
2023-05-05T12:18:43.296Z,53.52
2023-05-05T12:21:18.558Z,53.27
2023-05-05T12:23:46.701Z,50.41
2023-05-05T12:26:31.337Z,50.69
2023-05-05T12:29:00.174Z,48.55
2023-05-05T12:31:41.901Z,49.31
2023-05-05T12:34:11.008Z,48.27
2023-05-05T12:36:39.136Z,47.24
2023-05-05T12:39:07.091Z,46.52
2023-05-05T12:41:35.414Z,47.07
2023-05-05T12:44:04.421Z,49.20
2023-05-05T12:46:33.256Z,48.79
2023-05-05T12:49:02.825Z,48.54
2023-05-05T12:51:30.819Z,46.59
2023-05-05T12:54:09.550Z,46.30
2023-05-05T12:56:42.008Z,43.69
2023-05-05T12:59:11.017Z,46.67
2023-05-05T13:01:55.286Z,45.68
2023-05-05T13:04:25.263Z,43.59
2023-05-05T13:07:12.969Z,45.10
2023-05-05T13:09:41.080Z,42.90
2023-05-05T13:12:13.694Z,43.77
2023-05-05T13:14:42.149Z,44.31
2023-05-05T13:17:10.467Z,44.97
2023-05-05T13:19:43.282Z,44.35
2023-05-05T13:22:11.541Z,44.67
2023-05-05T13:24:50.493Z,45.24
2023-05-05T13:27:21.129Z,43.69
2023-05-05T13:29:49.393Z,44.68
2023-05-05T13:32:17.282Z,42.69
2023-05-05T13:34:45.651Z,41.77
2023-05-05T13:37:13.791Z,42.30
2023-05-05T13:39:41.879Z,42.63
2023-05-05T13:42:10.119Z,42.36
2023-05-05T13:44:38.200Z,42.79
2023-05-05T13:47:06.316Z,43.59
2023-05-05T13:49:34.452Z,41.74
2023-05-05T13:52:02.863Z,41.75
2023-05-05T13:54:30.896Z,41.56
2023-05-05T13:56:59.445Z,41.68
2023-05-05T13:59:27.439Z,41.49
2023-05-05T14:01:55.412Z,41.14
2023-05-05T14:04:23.476Z,40.96
2023-05-05T14:06:51.555Z,40.64
2023-05-05T14:09:19.432Z,39.85
2023-05-05T14:11:47.491Z,40.69
2023-05-05T14:14:15.574Z,41.43
2023-05-05T14:16:43.657Z,41.86
2023-05-05T14:19:11.673Z,41.24
2023-05-05T14:21:39.793Z,40.82
2023-05-05T14:24:08.101Z,40.22
2023-05-05T14:26:36.146Z,40.19
2023-05-05T14:29:04.129Z,40.68
2023-05-05T14:31:32.218Z,40.70
2023-05-05T14:34:00.184Z,41.39
2023-05-05T14:36:28.183Z,41.00
2023-05-05T14:38:56.218Z,40.78
2023-05-05T14:41:24.305Z,41.20
2023-05-05T14:43:52.461Z,40.53
2023-05-05T14:46:20.714Z,40.95
2023-05-05T14:48:49.712Z,41.72
2023-05-05T14:51:17.724Z,42.48
2023-05-05T14:53:45.851Z,43.21
2023-05-05T14:56:13.937Z,44.47
2023-05-05T14:58:41.905Z,44.90
2023-05-05T15:01:09.840Z,44.93
2023-05-05T15:03:38.012Z,45.29
2023-05-05T15:06:06.934Z,45.84
2023-05-05T15:08:35.007Z,44.55
2023-05-05T15:11:03.071Z,44.33
2023-05-05T15:13:31.467Z,44.60
2023-05-05T15:15:59.462Z,45.55
2023-05-05T15:18:27.532Z,45.92
2023-05-05T15:20:55.413Z,47.14
2023-05-05T15:23:23.391Z,46.88
2023-05-05T15:25:51.339Z,47.56
2023-05-05T15:28:20.094Z,48.04
2023-05-05T15:30:48.032Z,48.90
2023-05-05T15:33:16.281Z,49.72
2023-05-05T15:35:44.326Z,50.28
2023-05-05T15:38:12.320Z,49.76
2023-05-05T15:40:40.291Z,50.63
2023-05-05T15:43:08.246Z,51.88
2023-05-05T15:45:36.533Z,51.83
2023-05-05T15:48:04.688Z,51.87
2023-05-05T15:50:33.033Z,51.97
2023-05-05T15:53:01.807Z,52.01
2023-05-05T15:55:29.962Z,52.12
2023-05-05T15:57:58.095Z,52.69
2023-05-05T16:00:27.011Z,53.05
2023-05-05T16:02:55.081Z,54.04
2023-05-05T16:05:23.363Z,54.71
2023-05-05T16:07:51.128Z,55.90
2023-05-05T16:10:20.763Z,57.39
2023-05-05T16:12:48.825Z,62.34
2023-05-05T16:15:16.785Z,66.84
2023-05-05T16:17:44.757Z,69.91
2023-05-05T16:20:13.048Z,75.50
2023-05-05T16:22:41.017Z,79.57
2023-05-05T16:25:09.630Z,79.67
2023-05-05T16:27:37.818Z,81.76
2023-05-05T16:30:06.210Z,88.70
2023-05-05T16:32:34.215Z,88.87
2023-05-05T16:35:03.412Z,91.50
2023-05-05T16:37:31.476Z,91.08
2023-05-05T16:39:59.479Z,94.38
2023-05-05T16:42:27.741Z,94.02
2023-05-05T16:44:55.738Z,95.26
2023-05-05T16:47:23.836Z,96.25
2023-05-05T16:49:51.875Z,96.65
2023-05-05T16:52:20.046Z,95.23
2023-05-05T16:54:49.327Z,96.23
2023-05-05T16:57:17.264Z,97.14
2023-05-05T16:59:45.184Z,98.41
2023-05-05T17:02:13.104Z,100.00
2023-05-05T17:04:41.116Z,100.00
2023-05-05T17:07:09.193Z,100.00
2023-05-05T17:09:37.317Z,100.00
2023-05-05T17:12:05.720Z,100.00
2023-05-05T17:14:34.952Z,100.00
2023-05-05T17:17:02.901Z,100.00
2023-05-05T17:19:30.806Z,100.00
2023-05-05T17:21:58.962Z,100.00
2023-05-05T17:24:27.097Z,100.00
2023-05-05T17:26:55.488Z,99.94
2023-05-05T17:29:24.640Z,99.00
2023-05-05T17:31:52.974Z,95.28
2023-05-05T17:34:21.129Z,96.29
2023-05-05T17:36:49.185Z,93.94
2023-05-05T17:39:17.312Z,97.45
2023-05-05T17:41:45.326Z,99.24
2023-05-05T17:44:13.322Z,100.00
2023-05-05T17:46:41.828Z,97.70
2023-05-05T17:49:09.897Z,100.00
2023-05-05T17:51:37.918Z,97.10
2023-05-05T17:54:06.238Z,95.38
2023-05-05T17:56:36.145Z,97.99
2023-05-05T17:59:04.335Z,100.00
2023-05-05T18:01:32.330Z,100.00
2023-05-05T18:04:00.462Z,99.76
2023-05-05T18:06:29.455Z,99.42
2023-05-05T18:08:57.839Z,100.00
2023-05-05T18:11:29.075Z,98.03
2023-05-05T18:13:57.559Z,99.39
2023-05-05T18:16:25.742Z,97.87
2023-05-05T18:18:53.885Z,98.36
2023-05-05T18:21:21.902Z,97.27
2023-05-05T18:23:51.191Z,99.22
2023-05-05T18:26:19.266Z,99.16
2023-05-05T18:28:47.399Z,100.00
2023-05-05T18:31:15.522Z,100.00
2023-05-05T18:33:45.084Z,99.74
2023-05-05T18:36:14.101Z,100.00
2023-05-05T18:38:42.108Z,100.00
2023-05-05T18:41:10.093Z,100.00
2023-05-05T18:43:38.196Z,100.00
2023-05-05T18:46:06.250Z,99.89
2023-05-05T18:48:34.236Z,98.57
2023-05-05T18:51:05.914Z,99.97
2023-05-05T18:53:34.102Z,100.00
2023-05-05T18:56:02.772Z,100.00
2023-05-05T18:58:31.887Z,100.00
2023-05-05T19:00:59.940Z,100.00
2023-05-05T19:03:28.094Z,100.00
2023-05-05T19:05:56.081Z,100.00
2023-05-05T19:08:24.169Z,100.00
2023-05-05T19:10:52.762Z,100.00
2023-05-05T19:13:20.793Z,100.00
2023-05-05T19:15:48.827Z,100.00
2023-05-05T19:18:17.484Z,100.00
2023-05-05T19:20:45.428Z,100.00
2023-05-05T19:23:13.625Z,100.00
2023-05-05T19:25:41.610Z,100.00
2023-05-05T19:28:09.649Z,100.00
2023-05-05T19:30:38.058Z,99.37
2023-05-05T19:33:06.274Z,99.81
2023-05-05T19:35:34.331Z,98.84
2023-05-05T19:38:02.426Z,98.14
2023-05-05T19:40:30.354Z,99.17
2023-05-05T19:42:58.329Z,100.00
2023-05-05T19:45:26.354Z,100.00
2023-05-05T19:47:54.398Z,100.00
2023-05-05T19:50:22.723Z,100.00
2023-05-05T19:52:50.749Z,100.00
2023-05-05T19:55:19.858Z,100.00
2023-05-05T19:57:47.834Z,100.00
2023-05-05T20:00:16.016Z,100.00
2023-05-05T20:02:44.167Z,100.00
2023-05-05T20:05:15.147Z,100.00
2023-05-05T20:07:43.530Z,99.80
2023-05-05T20:10:12.196Z,99.97
2023-05-05T20:12:43.526Z,100.00
2023-05-05T20:15:12.724Z,99.81
2023-05-05T20:17:40.817Z,100.00
2023-05-05T20:20:09.465Z,100.00
2023-05-05T20:22:38.875Z,100.00
2023-05-05T20:25:08.840Z,100.00
2023-05-05T20:27:36.990Z,100.00
2023-05-05T20:30:05.778Z,100.00
2023-05-05T20:32:33.841Z,100.00
2023-05-05T20:35:01.968Z,100.00
2023-05-05T20:37:30.022Z,100.00
2023-05-05T20:39:59.524Z,100.00
2023-05-05T20:42:28.989Z,100.00
2023-05-05T20:44:57.030Z,100.00
2023-05-05T20:47:25.562Z,100.00
2023-05-05T20:49:53.605Z,100.00
2023-05-05T20:52:21.644Z,100.00
2023-05-05T20:54:49.589Z,100.00
2023-05-05T20:57:17.602Z,100.00
2023-05-05T20:59:45.545Z,100.00
2023-05-05T21:02:13.628Z,100.00
2023-05-05T21:04:41.920Z,100.00
2023-05-05T21:07:09.915Z,100.00
2023-05-05T21:09:37.987Z,100.00
2023-05-05T21:12:06.195Z,100.00
2023-05-05T21:14:34.205Z,100.00
2023-05-05T21:17:02.293Z,100.00
2023-05-05T21:19:30.409Z,100.00
2023-05-05T21:22:00.394Z,100.00
2023-05-05T21:24:29.383Z,100.00
2023-05-05T21:26:57.650Z,100.00
2023-05-05T21:29:26.091Z,100.00
2023-05-05T21:31:54.087Z,100.00
2023-05-05T21:34:22.086Z,100.00
2023-05-05T21:36:50.070Z,100.00
2023-05-05T21:39:18.613Z,100.00
2023-05-05T21:41:46.646Z,100.00
2023-05-05T21:44:14.869Z,100.00
2023-05-05T21:46:42.956Z,100.00
2023-05-05T21:49:17.286Z,100.00
2023-05-05T21:51:46.265Z,100.00
2023-05-05T21:54:14.362Z,100.00
2023-05-05T21:56:42.507Z,100.00
2023-05-05T21:59:10.518Z,100.00
2023-05-05T22:01:38.651Z,100.00
2023-05-05T22:04:06.789Z,100.00
2023-05-05T22:06:34.853Z,100.00
2023-05-05T22:09:02.827Z,100.00
2023-05-05T22:11:30.819Z,100.00
2023-05-05T22:13:58.862Z,100.00
2023-05-05T22:16:26.945Z,100.00
2023-05-05T22:18:55.003Z,100.00
2023-05-05T22:21:23.383Z,100.00
2023-05-05T22:23:51.446Z,100.00
2023-05-05T22:26:19.366Z,100.00
2023-05-05T22:28:47.520Z,100.00
2023-05-05T22:31:15.605Z,100.00
2023-05-05T22:33:43.571Z,100.00
2023-05-05T22:36:11.994Z,100.00
2023-05-05T22:38:39.924Z,100.00
2023-05-05T22:41:08.664Z,100.00
2023-05-05T22:43:36.614Z,100.00
2023-05-05T22:46:04.684Z,100.00
2023-05-05T22:48:32.727Z,100.00
2023-05-05T22:51:01.265Z,100.00
2023-05-05T22:53:29.310Z,100.00
2023-05-05T22:55:57.378Z,100.00
2023-05-05T22:58:25.962Z,100.00
2023-05-05T23:00:54.006Z,100.00
2023-05-05T23:03:22.051Z,100.00
2023-05-05T23:05:50.155Z,100.00
2023-05-05T23:08:18.130Z,100.00
2023-05-05T23:10:46.119Z,100.00
2023-05-05T23:13:14.222Z,100.00
2023-05-05T23:15:42.488Z,100.00
2023-05-05T23:18:10.498Z,100.00
2023-05-05T23:20:38.518Z,100.00
2023-05-05T23:23:06.624Z,100.00
2023-05-05T23:25:34.532Z,100.00
2023-05-05T23:28:02.494Z,100.00
2023-05-05T23:30:30.752Z,100.00
2023-05-05T23:32:59.306Z,100.00
2023-05-05T23:35:27.612Z,100.00
2023-05-05T23:37:55.619Z,100.00
2023-05-05T23:40:23.820Z,100.00
2023-05-05T23:42:51.813Z,100.00
2023-05-05T23:45:19.751Z,100.00
2023-05-05T23:47:47.885Z,100.00
2023-05-05T23:50:15.828Z,100.00
2023-05-05T23:52:43.871Z,100.00
2023-05-05T23:55:12.148Z,100.00
2023-05-05T23:57:40.171Z,100.00
